sensor_id;sensor_type;location;lat;lon;timestamp;pressure;altitude;pressure_sealevel;temperature;humidity
57024;BME280;42916;54.346;18.562;2023-05-02T00:00:54;100097.14;;;9.60;51.84
57024;BME280;42916;54.346;18.562;2023-05-02T00:03:21;100093.42;;;9.56;51.97
57024;BME280;42916;54.346;18.562;2023-05-02T00:05:48;100093.55;;;9.53;51.77
57024;BME280;42916;54.346;18.562;2023-05-02T00:08:15;100089.55;;;9.50;52.27
57024;BME280;42916;54.346;18.562;2023-05-02T00:10:42;100092.65;;;9.47;52.32
57024;BME280;42916;54.346;18.562;2023-05-02T00:13:09;100091.70;;;9.44;52.50
57024;BME280;42916;54.346;18.562;2023-05-02T00:15:35;100091.34;;;9.39;52.59
57024;BME280;42916;54.346;18.562;2023-05-02T00:18:02;100084.29;;;9.35;52.85
57024;BME280;42916;54.346;18.562;2023-05-02T00:20:29;100086.45;;;9.31;52.88
57024;BME280;42916;54.346;18.562;2023-05-02T00:22:56;100088.20;;;9.26;53.19
57024;BME280;42916;54.346;18.562;2023-05-02T00:25:22;100079.64;;;9.18;53.30
57024;BME280;42916;54.346;18.562;2023-05-02T00:27:49;100081.85;;;9.13;53.44
57024;BME280;42916;54.346;18.562;2023-05-02T00:30:16;100073.42;;;9.06;53.64
57024;BME280;42916;54.346;18.562;2023-05-02T00:32:44;100074.71;;;9.01;54.21
57024;BME280;42916;54.346;18.562;2023-05-02T00:35:10;100072.33;;;8.95;54.29
57024;BME280;42916;54.346;18.562;2023-05-02T00:37:37;100067.81;;;8.91;54.50
57024;BME280;42916;54.346;18.562;2023-05-02T00:40:06;100069.96;;;8.88;54.90
57024;BME280;42916;54.346;18.562;2023-05-02T00:42:33;100061.75;;;8.84;55.39
57024;BME280;42916;54.346;18.562;2023-05-02T00:45:02;100056.48;;;8.79;55.63
57024;BME280;42916;54.346;18.562;2023-05-02T00:47:31;100057.80;;;8.76;55.81
57024;BME280;42916;54.346;18.562;2023-05-02T00:49:58;100049.37;;;8.73;56.30
57024;BME280;42916;54.346;18.562;2023-05-02T00:52:27;100042.16;;;8.71;55.93
57024;BME280;42916;54.346;18.562;2023-05-02T00:54:54;100050.39;;;8.69;56.09
57024;BME280;42916;54.346;18.562;2023-05-02T00:57:22;100047.66;;;8.67;56.49
57024;BME280;42916;54.346;18.562;2023-05-02T00:59:48;100041.59;;;8.63;56.76
57024;BME280;42916;54.346;18.562;2023-05-02T01:02:28;100039.38;;;8.60;56.77
57024;BME280;42916;54.346;18.562;2023-05-02T01:05:14;100037.61;;;8.58;57.38
57024;BME280;42916;54.346;18.562;2023-05-02T01:13:43;100036.29;;;8.48;58.11
57024;BME280;42916;54.346;18.562;2023-05-02T01:16:15;100032.80;;;8.44;58.50
57024;BME280;42916;54.346;18.562;2023-05-02T01:18:45;100034.84;;;8.39;58.49
57024;BME280;42916;54.346;18.562;2023-05-02T01:21:14;100035.75;;;8.35;58.73
57024;BME280;42916;54.346;18.562;2023-05-02T01:24:04;100031.19;;;8.30;58.87
57024;BME280;42916;54.346;18.562;2023-05-02T01:29:32;100032.25;;;8.18;59.81
57024;BME280;42916;54.346;18.562;2023-05-02T01:32:01;100029.52;;;8.14;59.58
57024;BME280;42916;54.346;18.562;2023-05-02T01:34:31;100026.52;;;8.11;60.15
57024;BME280;42916;54.346;18.562;2023-05-02T01:37:00;100027.61;;;8.09;60.12
57024;BME280;42916;54.346;18.562;2023-05-02T01:39:29;100023.09;;;8.07;60.64
57024;BME280;42916;54.346;18.562;2023-05-02T01:41:58;100019.63;;;8.04;60.85
57024;BME280;42916;54.346;18.562;2023-05-02T01:44:29;100015.48;;;8.01;60.34
57024;BME280;42916;54.346;18.562;2023-05-02T01:46:56;100012.86;;;8.01;60.40
57024;BME280;42916;54.346;18.562;2023-05-02T01:49:25;100012.84;;;7.99;60.55
57024;BME280;42916;54.346;18.562;2023-05-02T01:51:52;100008.34;;;7.96;60.25
57024;BME280;42916;54.346;18.562;2023-05-02T01:54:22;100007.47;;;7.95;60.40
57024;BME280;42916;54.346;18.562;2023-05-02T01:56:50;100007.30;;;7.94;60.28
57024;BME280;42916;54.346;18.562;2023-05-02T01:59:19;100003.22;;;7.93;60.51
57024;BME280;42916;54.346;18.562;2023-05-02T02:01:49;100006.94;;;7.91;60.75
57024;BME280;42916;54.346;18.562;2023-05-02T02:04:18;100003.91;;;7.89;61.15
57024;BME280;42916;54.346;18.562;2023-05-02T02:06:51;100006.00;;;7.87;61.18
57024;BME280;42916;54.346;18.562;2023-05-02T02:09:19;100001.33;;;7.86;61.67
57024;BME280;42916;54.346;18.562;2023-05-02T02:11:54;99996.20;;;7.84;61.69
57024;BME280;42916;54.346;18.562;2023-05-02T02:14:27;99995.03;;;7.82;61.86
57024;BME280;42916;54.346;18.562;2023-05-02T02:17:00;99991.98;;;7.81;62.12
57024;BME280;42916;54.346;18.562;2023-05-02T02:19:28;99987.11;;;7.81;62.21
57024;BME280;42916;54.346;18.562;2023-05-02T02:21:57;99990.19;;;7.81;62.14
57024;BME280;42916;54.346;18.562;2023-05-02T02:24:25;99991.50;;;7.82;62.05
57024;BME280;42916;54.346;18.562;2023-05-02T02:26:54;99987.20;;;7.83;62.03
57024;BME280;42916;54.346;18.562;2023-05-02T02:29:20;99980.98;;;7.83;62.35
57024;BME280;42916;54.346;18.562;2023-05-02T02:31:47;99980.16;;;7.86;62.34
57024;BME280;42916;54.346;18.562;2023-05-02T02:34:14;99980.34;;;7.92;61.99
57024;BME280;42916;54.346;18.562;2023-05-02T02:36:46;99983.79;;;8.02;61.81
57024;BME280;42916;54.346;18.562;2023-05-02T02:42:11;99981.73;;;8.20;61.11
57024;BME280;42916;54.346;18.562;2023-05-02T02:44:53;99977.93;;;8.28;61.19
57024;BME280;42916;54.346;18.562;2023-05-02T02:47:41;99979.27;;;8.34;60.92
57024;BME280;42916;54.346;18.562;2023-05-02T02:50:33;99975.76;;;8.40;60.54
57024;BME280;42916;54.346;18.562;2023-05-02T02:53:04;99977.45;;;8.46;60.41
57024;BME280;42916;54.346;18.562;2023-05-02T02:55:54;99973.67;;;8.49;61.06
57024;BME280;42916;54.346;18.562;2023-05-02T03:01:02;99970.96;;;8.42;61.22
57024;BME280;42916;54.346;18.562;2023-05-02T03:03:31;99971.22;;;8.37;61.19
57024;BME280;42916;54.346;18.562;2023-05-02T03:05:59;99971.02;;;8.34;61.49
57024;BME280;42916;54.346;18.562;2023-05-02T03:08:27;99969.02;;;8.30;61.66
57024;BME280;42916;54.346;18.562;2023-05-02T03:10:54;99965.58;;;8.28;61.49
57024;BME280;42916;54.346;18.562;2023-05-02T03:13:20;99961.82;;;8.27;61.91
57024;BME280;42916;54.346;18.562;2023-05-02T03:18:17;99963.88;;;8.26;61.81
57024;BME280;42916;54.346;18.562;2023-05-02T03:20:45;99962.30;;;8.27;61.83
57024;BME280;42916;54.346;18.562;2023-05-02T03:23:12;99963.94;;;8.27;62.17
57024;BME280;42916;54.346;18.562;2023-05-02T03:25:39;99968.80;;;8.26;62.22
57024;BME280;42916;54.346;18.562;2023-05-02T03:28:07;99966.96;;;8.26;62.61
57024;BME280;42916;54.346;18.562;2023-05-02T03:30:35;99968.25;;;8.26;62.60
57024;BME280;42916;54.346;18.562;2023-05-02T03:33:06;99970.92;;;8.26;62.43
57024;BME280;42916;54.346;18.562;2023-05-02T03:35:34;99968.27;;;8.27;62.54
57024;BME280;42916;54.346;18.562;2023-05-02T03:38:02;99970.63;;;8.29;62.48
57024;BME280;42916;54.346;18.562;2023-05-02T03:40:29;99966.92;;;8.32;62.61
57024;BME280;42916;54.346;18.562;2023-05-02T03:42:56;99974.87;;;8.38;62.48
57024;BME280;42916;54.346;18.562;2023-05-02T03:45:26;99974.52;;;8.43;62.49
57024;BME280;42916;54.346;18.562;2023-05-02T03:47:53;99971.39;;;8.48;62.59
57024;BME280;42916;54.346;18.562;2023-05-02T03:50:22;99969.39;;;8.52;62.66
57024;BME280;42916;54.346;18.562;2023-05-02T03:52:49;99970.12;;;8.55;62.63
57024;BME280;42916;54.346;18.562;2023-05-02T03:55:18;99972.61;;;8.60;62.48
57024;BME280;42916;54.346;18.562;2023-05-02T03:57:45;99975.72;;;8.65;62.23
57024;BME280;42916;54.346;18.562;2023-05-02T04:00:13;99974.15;;;8.70;62.36
57024;BME280;42916;54.346;18.562;2023-05-02T04:02:43;99978.16;;;8.75;62.24
57024;BME280;42916;54.346;18.562;2023-05-02T04:05:13;99977.73;;;8.79;62.16
57024;BME280;42916;54.346;18.562;2023-05-02T04:07:40;99977.73;;;8.84;62.07
57024;BME280;42916;54.346;18.562;2023-05-02T04:10:07;99973.08;;;8.90;62.05
57024;BME280;42916;54.346;18.562;2023-05-02T04:12:43;99974.24;;;8.97;61.74
57024;BME280;42916;54.346;18.562;2023-05-02T04:15:10;99972.03;;;9.04;61.43
57024;BME280;42916;54.346;18.562;2023-05-02T04:17:37;99973.50;;;9.10;61.46
57024;BME280;42916;54.346;18.562;2023-05-02T04:20:06;99974.32;;;9.15;61.15
57024;BME280;42916;54.346;18.562;2023-05-02T04:22:35;99981.76;;;9.21;61.07
57024;BME280;42916;54.346;18.562;2023-05-02T04:25:06;99978.98;;;9.26;60.89
57024;BME280;42916;54.346;18.562;2023-05-02T04:27:34;99985.72;;;9.32;60.74
57024;BME280;42916;54.346;18.562;2023-05-02T04:30:02;99988.58;;;9.38;60.63
57024;BME280;42916;54.346;18.562;2023-05-02T04:32:29;99992.10;;;9.47;60.00
57024;BME280;42916;54.346;18.562;2023-05-02T04:34:56;99996.08;;;9.56;59.77
57024;BME280;42916;54.346;18.562;2023-05-02T04:37:24;99997.24;;;9.65;59.75
57024;BME280;42916;54.346;18.562;2023-05-02T04:39:51;99997.55;;;9.76;59.35
57024;BME280;42916;54.346;18.562;2023-05-02T04:42:22;100001.34;;;9.88;58.71
57024;BME280;42916;54.346;18.562;2023-05-02T04:45:10;99999.14;;;10.00;58.26
57024;BME280;42916;54.346;18.562;2023-05-02T04:47:37;99999.48;;;10.10;58.26
57024;BME280;42916;54.346;18.562;2023-05-02T04:50:04;100000.94;;;10.18;57.42
57024;BME280;42916;54.346;18.562;2023-05-02T04:52:31;99998.66;;;10.28;56.67
57024;BME280;42916;54.346;18.562;2023-05-02T04:54:58;99994.94;;;10.37;56.60
57024;BME280;42916;54.346;18.562;2023-05-02T04:57:25;99999.34;;;10.47;56.13
57024;BME280;42916;54.346;18.562;2023-05-02T04:59:55;100000.27;;;10.59;56.13
57024;BME280;42916;54.346;18.562;2023-05-02T05:02:22;100001.20;;;10.71;56.10
57024;BME280;42916;54.346;18.562;2023-05-02T05:04:49;100002.70;;;10.84;55.65
57024;BME280;42916;54.346;18.562;2023-05-02T05:07:17;100005.10;;;10.99;55.20
57024;BME280;42916;54.346;18.562;2023-05-02T05:09:45;100000.30;;;11.13;54.37
57024;BME280;42916;54.346;18.562;2023-05-02T05:12:12;99998.52;;;11.26;53.82
57024;BME280;42916;54.346;18.562;2023-05-02T05:14:39;100000.39;;;11.38;53.27
57024;BME280;42916;54.346;18.562;2023-05-02T05:17:06;100004.33;;;11.49;52.97
57024;BME280;42916;54.346;18.562;2023-05-02T05:19:33;99998.02;;;11.58;52.70
57024;BME280;42916;54.346;18.562;2023-05-02T05:21:59;99998.77;;;11.67;52.30
57024;BME280;42916;54.346;18.562;2023-05-02T05:24:26;100001.17;;;11.76;52.12
57024;BME280;42916;54.346;18.562;2023-05-02T05:26:55;100006.08;;;11.85;51.90
57024;BME280;42916;54.346;18.562;2023-05-02T05:29:22;100008.07;;;11.95;51.65
57024;BME280;42916;54.346;18.562;2023-05-02T05:31:49;100016.45;;;12.05;51.46
57024;BME280;42916;54.346;18.562;2023-05-02T05:34:18;100015.17;;;12.15;51.25
57024;BME280;42916;54.346;18.562;2023-05-02T05:36:46;100015.16;;;12.25;51.14
57024;BME280;42916;54.346;18.562;2023-05-02T05:39:13;100018.48;;;12.34;50.99
57024;BME280;42916;54.346;18.562;2023-05-02T05:41:42;100019.60;;;12.43;50.72
57024;BME280;42916;54.346;18.562;2023-05-02T05:44:10;100016.31;;;12.48;50.51
57024;BME280;42916;54.346;18.562;2023-05-02T05:46:37;100022.52;;;12.53;50.39
57024;BME280;42916;54.346;18.562;2023-05-02T05:49:05;100024.04;;;12.56;49.82
57024;BME280;42916;54.346;18.562;2023-05-02T05:51:34;100027.80;;;12.56;49.35
57024;BME280;42916;54.346;18.562;2023-05-02T05:54:00;100034.31;;;12.57;49.44
57024;BME280;42916;54.346;18.562;2023-05-02T05:56:27;100033.63;;;12.57;49.53
57024;BME280;42916;54.346;18.562;2023-05-02T05:59:00;100032.60;;;12.59;49.50
57024;BME280;42916;54.346;18.562;2023-05-02T06:01:27;100037.55;;;12.60;49.34
57024;BME280;42916;54.346;18.562;2023-05-02T06:03:54;100036.90;;;12.59;49.49
57024;BME280;42916;54.346;18.562;2023-05-02T06:06:21;100040.73;;;12.60;49.43
57024;BME280;42916;54.346;18.562;2023-05-02T06:08:47;100040.08;;;12.60;49.65
57024;BME280;42916;54.346;18.562;2023-05-02T06:11:14;100044.32;;;12.61;49.53
57024;BME280;42916;54.346;18.562;2023-05-02T06:13:41;100039.69;;;12.61;49.41
57024;BME280;42916;54.346;18.562;2023-05-02T06:16:08;100042.08;;;12.60;49.49
57024;BME280;42916;54.346;18.562;2023-05-02T06:18:35;100044.71;;;12.61;49.48
57024;BME280;42916;54.346;18.562;2023-05-02T06:21:03;100044.70;;;12.61;49.54
57024;BME280;42916;54.346;18.562;2023-05-02T06:23:30;100047.22;;;12.60;49.34
57024;BME280;42916;54.346;18.562;2023-05-02T06:25:59;100048.36;;;12.60;49.40
57024;BME280;42916;54.346;18.562;2023-05-02T06:28:27;100051.54;;;12.60;49.47
57024;BME280;42916;54.346;18.562;2023-05-02T06:30:58;100054.63;;;12.60;49.55
57024;BME280;42916;54.346;18.562;2023-05-02T06:33:27;100058.13;;;12.63;49.66
57024;BME280;42916;54.346;18.562;2023-05-02T06:35:54;100062.21;;;12.66;49.71
57024;BME280;42916;54.346;18.562;2023-05-02T06:38:21;100069.17;;;12.71;49.80
57024;BME280;42916;54.346;18.562;2023-05-02T06:40:49;100070.58;;;12.77;49.66
57024;BME280;42916;54.346;18.562;2023-05-02T06:43:16;100071.16;;;12.82;49.66
57024;BME280;42916;54.346;18.562;2023-05-02T06:45:43;100073.33;;;12.87;49.58
57024;BME280;42916;54.346;18.562;2023-05-02T06:48:10;100077.59;;;12.90;49.69
57024;BME280;42916;54.346;18.562;2023-05-02T06:50:37;100080.09;;;12.92;49.62
57024;BME280;42916;54.346;18.562;2023-05-02T06:53:04;100081.13;;;12.92;49.44
57024;BME280;42916;54.346;18.562;2023-05-02T06:55:31;100084.35;;;12.92;49.57
57024;BME280;42916;54.346;18.562;2023-05-02T06:57:58;100086.30;;;12.93;49.49
57024;BME280;42916;54.346;18.562;2023-05-02T07:00:25;100088.04;;;12.95;49.67
57024;BME280;42916;54.346;18.562;2023-05-02T07:02:51;100088.91;;;12.99;49.75
57024;BME280;42916;54.346;18.562;2023-05-02T07:05:18;100090.97;;;13.02;49.57
57024;BME280;42916;54.346;18.562;2023-05-02T07:07:45;100098.17;;;13.06;49.56
57024;BME280;42916;54.346;18.562;2023-05-02T07:10:14;100099.13;;;13.09;49.72
57024;BME280;42916;54.346;18.562;2023-05-02T07:12:41;100102.46;;;13.12;49.66
57024;BME280;42916;54.346;18.562;2023-05-02T07:15:08;100109.20;;;13.15;49.74
57024;BME280;42916;54.346;18.562;2023-05-02T07:17:35;100114.89;;;13.16;49.59
57024;BME280;42916;54.346;18.562;2023-05-02T07:20:01;100115.92;;;13.17;49.80
57024;BME280;42916;54.346;18.562;2023-05-02T07:22:28;100117.75;;;13.23;49.80
57024;BME280;42916;54.346;18.562;2023-05-02T07:25:00;100116.33;;;13.26;49.63
57024;BME280;42916;54.346;18.562;2023-05-02T07:27:27;100116.98;;;13.31;49.87
57024;BME280;42916;54.346;18.562;2023-05-02T07:29:54;100119.88;;;13.34;49.73
57024;BME280;42916;54.346;18.562;2023-05-02T07:32:21;100126.42;;;13.36;49.67
57024;BME280;42916;54.346;18.562;2023-05-02T07:34:48;100128.49;;;13.36;49.71
57024;BME280;42916;54.346;18.562;2023-05-02T07:37:15;100130.55;;;13.39;49.71
57024;BME280;42916;54.346;18.562;2023-05-02T07:39:41;100132.66;;;13.44;49.89
57024;BME280;42916;54.346;18.562;2023-05-02T07:42:08;100135.24;;;13.51;49.98
57024;BME280;42916;54.346;18.562;2023-05-02T07:44:35;100142.55;;;13.56;49.89
57024;BME280;42916;54.346;18.562;2023-05-02T07:47:02;100143.79;;;13.57;49.53
57024;BME280;42916;54.346;18.562;2023-05-02T07:49:29;100146.85;;;13.58;49.64
57024;BME280;42916;54.346;18.562;2023-05-02T07:51:57;100148.48;;;13.59;49.70
57024;BME280;42916;54.346;18.562;2023-05-02T07:54:23;100145.63;;;13.61;49.62
57024;BME280;42916;54.346;18.562;2023-05-02T07:56:51;100146.34;;;13.63;49.57
57024;BME280;42916;54.346;18.562;2023-05-02T07:59:18;100153.49;;;13.64;49.80
57024;BME280;42916;54.346;18.562;2023-05-02T08:01:45;100159.94;;;13.66;49.64
57024;BME280;42916;54.346;18.562;2023-05-02T08:04:12;100158.65;;;13.70;49.91
57024;BME280;42916;54.346;18.562;2023-05-02T08:06:39;100159.77;;;13.76;49.92
57024;BME280;42916;54.346;18.562;2023-05-02T08:09:06;100157.77;;;13.80;49.81
57024;BME280;42916;54.346;18.562;2023-05-02T08:11:34;100158.07;;;13.86;50.00
57024;BME280;42916;54.346;18.562;2023-05-02T08:14:01;100159.16;;;13.94;49.81
57024;BME280;42916;54.346;18.562;2023-05-02T08:16:28;100165.13;;;14.04;49.98
57024;BME280;42916;54.346;18.562;2023-05-02T08:18:55;100165.20;;;14.15;49.85
57024;BME280;42916;54.346;18.562;2023-05-02T08:21:21;100158.88;;;14.27;49.30
57024;BME280;42916;54.346;18.562;2023-05-02T08:23:48;100163.92;;;14.38;49.15
57024;BME280;42916;54.346;18.562;2023-05-02T08:26:15;100165.25;;;14.51;49.24
57024;BME280;42916;54.346;18.562;2023-05-02T08:28:44;100165.95;;;14.67;49.36
57024;BME280;42916;54.346;18.562;2023-05-02T08:31:11;100171.06;;;14.82;48.81
57024;BME280;42916;54.346;18.562;2023-05-02T08:33:38;100171.41;;;14.91;48.22
57024;BME280;42916;54.346;18.562;2023-05-02T08:36:15;100170.59;;;15.02;47.87
57024;BME280;42916;54.346;18.562;2023-05-02T08:38:43;100175.54;;;15.15;47.11
57024;BME280;42916;54.346;18.562;2023-05-02T08:41:15;100187.29;;;15.31;45.68
57024;BME280;42916;54.346;18.562;2023-05-02T08:43:45;100188.48;;;15.46;44.54
57024;BME280;42916;54.346;18.562;2023-05-02T08:46:14;100190.69;;;15.54;43.17
57024;BME280;42916;54.346;18.562;2023-05-02T08:48:42;100196.60;;;15.60;41.85
57024;BME280;42916;54.346;18.562;2023-05-02T08:51:13;100201.09;;;15.65;41.63
57024;BME280;42916;54.346;18.562;2023-05-02T08:53:41;100205.35;;;15.66;41.38
57024;BME280;42916;54.346;18.562;2023-05-02T08:56:09;100203.98;;;15.69;40.58
57024;BME280;42916;54.346;18.562;2023-05-02T08:58:37;100203.77;;;15.74;40.29
57024;BME280;42916;54.346;18.562;2023-05-02T09:01:17;100200.91;;;15.74;39.94
57024;BME280;42916;54.346;18.562;2023-05-02T09:03:46;100207.89;;;15.83;40.26
57024;BME280;42916;54.346;18.562;2023-05-02T09:06:18;100209.58;;;15.96;40.07
57024;BME280;42916;54.346;18.562;2023-05-02T09:08:47;100215.81;;;16.02;39.44
57024;BME280;42916;54.346;18.562;2023-05-02T09:11:15;100216.13;;;16.11;39.70
57024;BME280;42916;54.346;18.562;2023-05-02T09:13:49;100219.65;;;16.21;39.60
57024;BME280;42916;54.346;18.562;2023-05-02T09:16:22;100221.98;;;16.31;39.47
57024;BME280;42916;54.346;18.562;2023-05-02T09:18:55;100224.94;;;16.38;39.14
57024;BME280;42916;54.346;18.562;2023-05-02T09:21:33;100227.83;;;16.47;38.98
57024;BME280;42916;54.346;18.562;2023-05-02T09:24:01;100232.59;;;16.54;38.59
57024;BME280;42916;54.346;18.562;2023-05-02T09:26:30;100228.44;;;16.64;39.30
57024;BME280;42916;54.346;18.562;2023-05-02T09:29:02;100239.42;;;16.73;39.54
57024;BME280;42916;54.346;18.562;2023-05-02T09:31:32;100250.34;;;16.74;39.64
57024;BME280;42916;54.346;18.562;2023-05-02T09:34:08;100250.88;;;16.68;39.76
57024;BME280;42916;54.346;18.562;2023-05-02T09:36:40;100253.67;;;16.64;40.05
57024;BME280;42916;54.346;18.562;2023-05-02T09:39:20;100252.45;;;16.76;40.39
57024;BME280;42916;54.346;18.562;2023-05-02T09:41:48;100263.44;;;16.93;40.68
57024;BME280;42916;54.346;18.562;2023-05-02T09:44:17;100267.64;;;16.99;40.39
57024;BME280;42916;54.346;18.562;2023-05-02T09:46:47;100276.69;;;16.90;40.44
57024;BME280;42916;54.346;18.562;2023-05-02T09:49:15;100272.83;;;16.72;40.65
57024;BME280;42916;54.346;18.562;2023-05-02T09:51:45;100281.92;;;16.67;41.40
57024;BME280;42916;54.346;18.562;2023-05-02T09:54:13;100289.48;;;16.61;42.03
57024;BME280;42916;54.346;18.562;2023-05-02T09:56:55;100291.89;;;16.51;42.62
57024;BME280;42916;54.346;18.562;2023-05-02T09:59:22;100294.11;;;16.53;43.05
57024;BME280;42916;54.346;18.562;2023-05-02T10:01:57;100298.11;;;16.68;43.49
57024;BME280;42916;54.346;18.562;2023-05-02T10:04:25;100298.92;;;16.78;44.04
57024;BME280;42916;54.346;18.562;2023-05-02T10:06:53;100303.38;;;16.88;44.46
57024;BME280;42916;54.346;18.562;2023-05-02T10:09:20;100304.20;;;17.02;45.12
57024;BME280;42916;54.346;18.562;2023-05-02T10:11:52;100307.73;;;17.10;45.66
57024;BME280;42916;54.346;18.562;2023-05-02T10:14:23;100318.47;;;16.96;45.91
57024;BME280;42916;54.346;18.562;2023-05-02T10:17:00;100319.23;;;16.81;46.39
57024;BME280;42916;54.346;18.562;2023-05-02T10:22:09;100326.73;;;16.71;47.82
57024;BME280;42916;54.346;18.562;2023-05-02T10:24:37;100338.52;;;16.70;48.59
57024;BME280;42916;54.346;18.562;2023-05-02T10:27:06;100338.09;;;16.63;48.86
57024;BME280;42916;54.346;18.562;2023-05-02T10:29:33;100340.27;;;16.70;49.12
57024;BME280;42916;54.346;18.562;2023-05-02T10:32:02;100348.44;;;16.88;48.92
57024;BME280;42916;54.346;18.562;2023-05-02T10:34:31;100347.67;;;16.94;48.75
57024;BME280;42916;54.346;18.562;2023-05-02T10:36:59;100339.71;;;16.94;49.26
57024;BME280;42916;54.346;18.562;2023-05-02T10:39:29;100348.56;;;16.94;48.93
57024;BME280;42916;54.346;18.562;2023-05-02T10:41:58;100359.02;;;16.89;48.58
57024;BME280;42916;54.346;18.562;2023-05-02T10:44:40;100357.70;;;16.69;48.86
57024;BME280;42916;54.346;18.562;2023-05-02T10:47:22;100359.19;;;16.41;49.18
57024;BME280;42916;54.346;18.562;2023-05-02T10:49:58;100362.89;;;16.27;49.65
57024;BME280;42916;54.346;18.562;2023-05-02T10:52:33;100363.69;;;16.33;50.10
57024;BME280;42916;54.346;18.562;2023-05-02T10:55:22;100378.27;;;16.43;50.24
57024;BME280;42916;54.346;18.562;2023-05-02T11:00:30;100377.20;;;15.92;51.65
57024;BME280;42916;54.346;18.562;2023-05-02T11:02:58;100384.96;;;15.85;52.04
57024;BME280;42916;54.346;18.562;2023-05-02T11:05:26;100383.16;;;15.84;52.41
57024;BME280;42916;54.346;18.562;2023-05-02T11:08:32;100383.36;;;15.91;52.66
57024;BME280;42916;54.346;18.562;2023-05-02T11:11:38;100386.59;;;16.05;52.56
57024;BME280;42916;54.346;18.562;2023-05-02T11:14:07;100391.58;;;16.06;52.61
57024;BME280;42916;54.346;18.562;2023-05-02T11:24:45;100415.02;;;15.46;53.43
57024;BME280;42916;54.346;18.562;2023-05-02T11:30:00;100437.79;;;15.08;55.35
57024;BME280;42916;54.346;18.562;2023-05-02T11:35:23;100448.55;;;14.67;56.88
57024;BME280;42916;54.346;18.562;2023-05-02T11:37:53;100454.20;;;14.45;57.40
57024;BME280;42916;54.346;18.562;2023-05-02T11:40:20;100464.71;;;14.27;59.23
57024;BME280;42916;54.346;18.562;2023-05-02T11:42:47;100472.23;;;14.17;60.05
57024;BME280;42916;54.346;18.562;2023-05-02T11:45:14;100474.11;;;14.09;61.13
57024;BME280;42916;54.346;18.562;2023-05-02T11:47:41;100477.30;;;14.01;61.39
57024;BME280;42916;54.346;18.562;2023-05-02T11:50:09;100495.04;;;13.94;61.99
57024;BME280;42916;54.346;18.562;2023-05-02T11:52:42;100497.30;;;13.82;62.22
57024;BME280;42916;54.346;18.562;2023-05-02T11:55:13;100508.29;;;13.64;62.92
57024;BME280;42916;54.346;18.562;2023-05-02T11:57:40;100522.49;;;13.46;63.33
57024;BME280;42916;54.346;18.562;2023-05-02T12:00:08;100529.21;;;13.25;64.51
57024;BME280;42916;54.346;18.562;2023-05-02T12:02:38;100529.06;;;12.99;65.97
57024;BME280;42916;54.346;18.562;2023-05-02T12:05:10;100535.26;;;12.77;67.33
57024;BME280;42916;54.346;18.562;2023-05-02T12:07:42;100535.85;;;12.59;68.26
57024;BME280;42916;54.346;18.562;2023-05-02T12:10:12;100534.12;;;12.54;67.87
57024;BME280;42916;54.346;18.562;2023-05-02T12:12:42;100536.30;;;12.55;68.32
57024;BME280;42916;54.346;18.562;2023-05-02T12:15:10;100540.17;;;12.53;68.40
57024;BME280;42916;54.346;18.562;2023-05-02T12:17:40;100544.17;;;12.56;68.10
57024;BME280;42916;54.346;18.562;2023-05-02T12:20:08;100544.45;;;12.59;68.32
57024;BME280;42916;54.346;18.562;2023-05-02T12:22:36;100551.73;;;12.63;68.85
57024;BME280;42916;54.346;18.562;2023-05-02T12:25:04;100562.89;;;12.54;69.29
57024;BME280;42916;54.346;18.562;2023-05-02T12:27:31;100570.48;;;12.37;69.52
57024;BME280;42916;54.346;18.562;2023-05-02T12:29:59;100573.33;;;12.23;69.77
57024;BME280;42916;54.346;18.562;2023-05-02T12:32:28;100568.36;;;12.15;70.25
57024;BME280;42916;54.346;18.562;2023-05-02T12:34:56;100580.78;;;12.14;70.37
57024;BME280;42916;54.346;18.562;2023-05-02T12:37:24;100581.45;;;12.14;70.90
57024;BME280;42916;54.346;18.562;2023-05-02T12:39:52;100589.80;;;12.08;71.23
57024;BME280;42916;54.346;18.562;2023-05-02T12:42:20;100603.66;;;12.03;71.17
57024;BME280;42916;54.346;18.562;2023-05-02T12:44:48;100611.76;;;11.89;71.03
57024;BME280;42916;54.346;18.562;2023-05-02T12:47:18;100606.39;;;11.81;70.96
57024;BME280;42916;54.346;18.562;2023-05-02T12:49:53;100609.52;;;11.94;70.52
57024;BME280;42916;54.346;18.562;2023-05-02T12:52:47;100611.05;;;12.06;69.97
57024;BME280;42916;54.346;18.562;2023-05-02T12:55:15;100616.57;;;12.21;69.37
57024;BME280;42916;54.346;18.562;2023-05-02T12:57:42;100620.30;;;12.32;68.48
57024;BME280;42916;54.346;18.562;2023-05-02T13:00:10;100624.80;;;12.22;68.52
57024;BME280;42916;54.346;18.562;2023-05-02T13:02:37;100638.13;;;12.10;68.72
57024;BME280;42916;54.346;18.562;2023-05-02T13:05:17;100637.48;;;11.94;68.76
57024;BME280;42916;54.346;18.562;2023-05-02T13:07:44;100636.59;;;11.78;68.86
57024;BME280;42916;54.346;18.562;2023-05-02T13:10:12;100643.75;;;11.77;68.69
57024;BME280;42916;54.346;18.562;2023-05-02T13:12:38;100653.36;;;11.81;68.65
57024;BME280;42916;54.346;18.562;2023-05-02T13:15:07;100658.12;;;11.72;68.42
57024;BME280;42916;54.346;18.562;2023-05-02T13:17:34;100664.70;;;11.54;68.21
57024;BME280;42916;54.346;18.562;2023-05-02T13:20:01;100669.09;;;11.38;67.71
57024;BME280;42916;54.346;18.562;2023-05-02T13:22:28;100673.51;;;11.26;68.03
57024;BME280;42916;54.346;18.562;2023-05-02T13:24:55;100672.63;;;11.21;67.95
57024;BME280;42916;54.346;18.562;2023-05-02T13:27:22;100674.73;;;11.24;67.88
57024;BME280;42916;54.346;18.562;2023-05-02T13:29:49;100675.08;;;11.26;67.35
57024;BME280;42916;54.346;18.562;2023-05-02T13:32:16;100681.81;;;11.36;66.91